Time;durP1;ratioP1;P1;durP2;ratioP2;P2;SDS_P1;SDS_P2;PMS_P1;PMS_P2;Temp;Humidity;BMP_temperature;BMP_pressure;BME280_temperature;BME280_humidity;BME280_pressure;Samples;Min_cycle;Max_cycle;Signal;HPM_P1;HPM_P2
2023/11/07 00:00:06;;;;;;;1.30;1.00;;;9.20;99.90;;;;;;5045342;28;20917;-72
2023/11/07 00:02:32;;;;;;;5.57;1.30;;;9.20;99.90;;;;;;5035240;28;20760;-74
2023/11/07 00:04:58;;;;;;;1.20;1.03;;;9.20;99.90;;;;;;5035540;28;20430;-73
2023/11/07 00:07:24;;;;;;;1.73;1.07;;;9.10;99.90;;;;;;5038556;28;20433;-73
2023/11/07 00:09:50;;;;;;;1.30;1.00;;;9.10;99.90;;;;;;5047895;28;20419;-72
2023/11/07 00:12:16;;;;;;;1.83;1.30;;;9.10;99.90;;;;;;5034993;28;20576;-73
2023/11/07 00:14:42;;;;;;;1.97;1.10;;;9.10;99.90;;;;;;5035136;28;20171;-71
2023/11/07 00:17:09;;;;;;;1.77;1.40;;;9.10;99.90;;;;;;5035133;28;20985;-70
2023/11/07 00:19:35;;;;;;;2.00;1.37;;;9.00;99.90;;;;;;5040478;28;20261;-73
2023/11/07 00:22:00;;;;;;;1.30;1.20;;;9.00;99.90;;;;;;5054391;28;20500;-73
2023/11/07 00:24:26;;;;;;;2.40;1.70;;;9.00;99.90;;;;;;5054860;28;20702;-73
2023/11/07 00:26:52;;;;;;;1.97;1.17;;;9.00;99.90;;;;;;5054494;28;20219;-73
2023/11/07 00:29:20;;;;;;;1.43;1.03;;;9.00;99.90;;;;;;5051934;28;20229;-73
2023/11/07 00:31:45;;;;;;;2.50;1.40;;;8.80;99.90;;;;;;5034755;28;20454;-73
2023/11/07 00:34:11;;;;;;;1.83;1.00;;;8.70;99.90;;;;;;5034907;28;20799;-73
2023/11/07 00:36:37;;;;;;;1.80;1.20;;;8.80;99.90;;;;;;5034765;28;20186;-72
2023/11/07 00:39:03;;;;;;;2.50;1.23;;;8.80;99.90;;;;;;5035114;28;20959;-72
2023/11/07 00:41:28;;;;;;;2.27;0.90;;;8.90;99.90;;;;;;5051276;28;20186;-72
2023/11/07 00:44:00;;;;;;;1.73;1.00;;;8.90;99.90;;;;;;5054515;28;20630;-72
2023/11/07 00:46:25;;;;;;;2.20;0.90;;;8.80;99.90;;;;;;5054942;28;20596;-72
2023/11/07 00:48:51;;;;;;;1.40;1.10;;;8.70;99.90;;;;;;5054255;28;20499;-72
2023/11/07 00:51:16;;;;;;;2.97;1.60;;;8.80;99.90;;;;;;5035525;28;20227;-72
2023/11/07 00:53:42;;;;;;;1.67;1.03;;;8.80;99.90;;;;;;5034578;28;20173;-72
2023/11/07 00:56:08;;;;;;;2.17;0.90;;;8.80;99.90;;;;;;5034123;28;20172;-72
2023/11/07 00:58:34;;;;;;;1.50;1.00;;;8.70;99.90;;;;;;5034529;28;20268;-72
2023/11/07 01:01:00;;;;;;;1.63;1.00;;;8.70;99.90;;;;;;5050715;28;20204;-72
2023/11/07 01:03:26;;;;;;;1.70;1.30;;;8.80;99.90;;;;;;5054456;28;20402;-72
2023/11/07 01:05:52;;;;;;;1.50;1.13;;;8.70;99.90;;;;;;5053943;28;20405;-72
2023/11/07 01:08:18;;;;;;;1.87;1.20;;;8.70;99.90;;;;;;5054034;28;20437;-72
2023/11/07 01:10:44;;;;;;;3.40;1.23;;;8.60;99.90;;;;;;5039696;28;20924;-72
2023/11/07 01:13:11;;;;;;;2.93;1.10;;;8.50;99.90;;;;;;5034178;28;20193;-71
2023/11/07 01:15:37;;;;;;;1.13;0.87;;;8.50;99.90;;;;;;5033884;28;20911;-72
2023/11/07 01:18:03;;;;;;;1.30;1.10;;;8.50;99.90;;;;;;5033969;28;20520;-72
2023/11/07 01:20:28;;;;;;;1.67;1.17;;;8.50;99.90;;;;;;5045555;28;20169;-73
2023/11/07 01:22:54;;;;;;;1.20;0.90;;;8.40;99.90;;;;;;5053612;28;20423;-72
2023/11/07 01:25:20;;;;;;;2.67;1.30;;;8.40;99.90;;;;;;5053613;28;20173;-73
2023/11/07 01:27:46;;;;;;;3.83;1.43;;;8.40;99.90;;;;;;5053484;28;20449;-72
2023/11/07 01:30:13;;;;;;;2.50;1.17;;;8.40;99.90;;;;;;5044686;28;20176;-71
2023/11/07 01:32:42;;;;;;;1.57;1.17;;;8.30;99.90;;;;;;5032985;28;20196;-73
2023/11/07 01:35:09;;;;;;;1.10;0.83;;;8.40;99.90;;;;;;5033813;28;20410;-71
2023/11/07 01:37:35;;;;;;;1.73;1.60;;;8.40;99.90;;;;;;5033654;28;20487;-72
2023/11/07 01:40:01;;;;;;;1.57;1.00;;;8.50;99.90;;;;;;5041258;28;20457;-73
2023/11/07 01:42:26;;;;;;;2.40;1.10;;;8.40;99.90;;;;;;5053604;28;20442;-71
2023/11/07 01:44:52;;;;;;;1.10;1.00;;;8.40;99.90;;;;;;5053446;28;20661;-73
2023/11/07 01:47:20;;;;;;;2.17;1.03;;;8.40;99.90;;;;;;5053344;28;20201;-72
2023/11/07 01:49:47;;;;;;;1.40;1.03;;;8.30;99.90;;;;;;5047594;28;20206;-72
2023/11/07 01:52:16;;;;;;;1.10;0.83;;;8.40;99.90;;;;;;5032542;28;20500;-72
2023/11/07 01:54:42;;;;;;;2.50;1.23;;;8.40;99.90;;;;;;5033471;28;20508;-73
2023/11/07 01:57:08;;;;;;;1.70;1.00;;;8.40;99.90;;;;;;5033067;28;20973;-71
2023/11/07 01:59:34;;;;;;;1.63;1.13;;;8.40;99.90;;;;;;5036816;28;20408;-72
2023/11/07 02:02:01;;;;;;;1.20;0.90;;;8.50;99.90;;;;;;5053056;28;20412;-72
2023/11/07 02:04:26;;;;;;;1.30;0.97;;;8.50;99.90;;;;;;5053171;28;20185;-72
2023/11/07 02:06:52;;;;;;;3.00;1.10;;;8.40;99.90;;;;;;5052814;28;20737;-72
2023/11/07 02:09:17;;;;;;;2.60;1.10;;;8.30;99.90;;;;;;5051693;28;20174;-72
2023/11/07 02:11:43;;;;;;;3.47;1.10;;;8.20;99.90;;;;;;5033095;28;20296;-72
2023/11/07 02:14:24;;;;;;;2.53;1.30;;;8.20;99.90;;;;;;5040465;28;20176;-70
2023/11/07 02:16:50;;;;;;;1.50;0.90;;;8.20;99.90;;;;;;5053079;28;20198;-70
2023/11/07 02:19:15;;;;;;;1.10;0.80;;;8.20;99.90;;;;;;5052301;28;20431;-72
2023/11/07 02:21:44;;;;;;;1.50;1.40;;;8.40;99.90;;;;;;5033057;28;20165;-71
2023/11/07 02:24:10;;;;;;;1.00;0.80;;;8.30;99.90;;;;;;5032851;28;20440;-70
2023/11/07 02:26:36;;;;;;;0.90;0.80;;;8.40;99.90;;;;;;5058242;22;20510;-76
2023/11/07 02:29:01;;;;;;;1.80;1.13;;;8.50;99.90;;;;;;5031748;28;21004;-74
2023/11/07 02:31:27;;;;;;;2.10;1.10;;;8.50;99.90;;;;;;5045597;28;20701;-74
2023/11/07 02:33:53;;;;;;;2.50;1.13;;;8.60;99.90;;;;;;5052760;28;20172;-74
2023/11/07 02:36:18;;;;;;;1.63;1.10;;;8.50;99.90;;;;;;5052805;28;20188;-75
2023/11/07 02:38:44;;;;;;;2.40;1.23;;;8.50;99.90;;;;;;5052604;28;20301;-74
2023/11/07 02:41:10;;;;;;;1.93;1.00;;;8.50;99.90;;;;;;5053086;28;20533;-74
2023/11/07 02:43:36;;;;;;;3.13;1.10;;;8.30;99.90;;;;;;5053855;28;20518;-74
2023/11/07 02:46:02;;;;;;;2.27;1.00;;;8.30;99.90;;;;;;5057262;28;20437;-75
2023/11/07 02:48:27;;;;;;;1.23;0.77;;;8.30;99.90;;;;;;5056680;28;20566;-74
2023/11/07 02:50:53;;;;;;;2.00;1.10;;;8.40;99.90;;;;;;5056761;28;20167;-75
2023/11/07 02:53:18;;;;;;;1.10;1.00;;;8.40;99.90;;;;;;5055439;28;20169;-75
2023/11/07 02:55:45;;;;;;;1.13;0.90;;;8.50;99.90;;;;;;5057721;28;20159;-74
2023/11/07 02:58:11;;;;;;;1.80;1.00;;;8.50;99.90;;;;;;5056647;28;20211;-75
2023/11/07 03:00:36;;;;;;;1.43;0.80;;;8.50;99.90;;;;;;5056561;28;20398;-74
2023/11/07 03:03:03;;;;;;;1.20;0.90;;;8.50;99.90;;;;;;5057046;28;20162;-75
2023/11/07 03:05:29;;;;;;;2.00;0.80;;;8.60;99.90;;;;;;5056647;28;20174;-74
2023/11/07 03:07:55;;;;;;;1.80;0.83;;;8.70;99.90;;;;;;5056310;28;20432;-74
2023/11/07 03:10:20;;;;;;;1.87;0.90;;;8.80;99.90;;;;;;5056448;28;20174;-75
2023/11/07 03:12:47;;;;;;;2.20;1.33;;;8.90;99.90;;;;;;5055106;28;20711;-74
2023/11/07 03:15:13;;;;;;;1.17;0.83;;;9.00;99.90;;;;;;5056309;28;20170;-73
2023/11/07 03:17:40;;;;;;;1.43;0.90;;;8.90;99.90;;;;;;5054848;28;20430;-74
2023/11/07 03:20:07;;;;;;;1.20;0.87;;;9.00;99.90;;;;;;5054911;28;20418;-74
2023/11/07 03:22:33;;;;;;;1.10;0.70;;;9.00;99.90;;;;;;5055103;28;20423;-75
2023/11/07 03:24:58;;;;;;;1.20;0.70;;;9.00;99.90;;;;;;5056016;28;20798;-75
2023/11/07 03:27:24;;;;;;;2.83;0.70;;;9.00;99.90;;;;;;5055974;28;20203;-75
2023/11/07 03:29:50;;;;;;;0.90;0.80;;;8.90;99.90;;;;;;5056490;28;20515;-75
2023/11/07 03:32:15;;;;;;;1.93;1.10;;;8.80;99.90;;;;;;5056112;28;20444;-75
2023/11/07 03:34:41;;;;;;;1.43;0.70;;;8.80;99.90;;;;;;5056199;28;20159;-75
2023/11/07 03:37:07;;;;;;;1.17;0.70;;;8.80;99.90;;;;;;5056058;28;20186;-74
2023/11/07 03:39:32;;;;;;;5.90;0.90;;;8.90;99.90;;;;;;5055812;28;20238;-75
2023/11/07 03:41:59;;;;;;;2.60;0.90;;;8.80;99.90;;;;;;5055696;28;20251;-74
2023/11/07 03:44:25;;;;;;;2.93;0.80;;;8.80;99.90;;;;;;5054390;28;20167;-75
2023/11/07 03:46:50;;;;;;;1.27;0.80;;;8.70;99.90;;;;;;5055481;28;20425;-74
2023/11/07 03:49:16;;;;;;;1.40;0.77;;;8.70;99.90;;;;;;5055164;28;20241;-74
2023/11/07 03:51:42;;;;;;;1.00;0.70;;;8.70;99.90;;;;;;5055515;28;20194;-74
2023/11/07 03:54:07;;;;;;;1.73;0.80;;;8.70;99.90;;;;;;5055813;28;20574;-75
2023/11/07 03:56:33;;;;;;;1.10;0.97;;;8.70;99.90;;;;;;5054320;28;20168;-76
2023/11/07 03:58:58;;;;;;;3.07;1.03;;;8.60;99.90;;;;;;5055123;28;20165;-75
2023/11/07 04:01:35;;;;;;;2.40;0.80;;;8.60;99.90;;;;;;5055680;28;20171;-75
2023/11/07 04:04:00;;;;;;;2.30;0.80;;;8.60;99.90;;;;;;5055411;28;20151;-75
2023/11/07 04:06:26;;;;;;;3.40;1.10;;;8.60;99.90;;;;;;5055210;28;20787;-75
2023/11/07 04:08:53;;;;;;;2.20;0.70;;;8.60;99.90;;;;;;5055216;28;20410;-74
2023/11/07 04:11:19;;;;;;;1.73;1.00;;;8.60;99.90;;;;;;5055182;28;20564;-74
2023/11/07 04:13:45;;;;;;;1.20;0.80;;;8.60;99.90;;;;;;5054069;28;20456;-74
2023/11/07 04:16:10;;;;;;;5.50;1.03;;;8.70;99.90;;;;;;5055414;28;20444;-75
2023/11/07 04:18:36;;;;;;;3.23;1.00;;;8.60;99.90;;;;;;5055338;28;20311;-75
2023/11/07 04:21:03;;;;;;;1.67;0.80;;;8.70;99.90;;;;;;5055596;28;20763;-74
2023/11/07 04:23:29;;;;;;;4.47;1.47;;;8.60;99.90;;;;;;5054565;28;20164;-75
2023/11/07 04:25:55;;;;;;;2.23;1.30;;;8.50;99.90;;;;;;5054461;28;20416;-75
2023/11/07 04:28:21;;;;;;;1.40;0.80;;;8.40;99.90;;;;;;5054729;28;20205;-75
2023/11/07 04:30:46;;;;;;;1.50;0.97;;;8.40;99.90;;;;;;5055076;28;20215;-75
2023/11/07 04:33:12;;;;;;;1.53;0.70;;;8.30;99.90;;;;;;5054641;28;20233;-75
2023/11/07 04:35:39;;;;;;;3.90;1.30;;;8.30;99.90;;;;;;5054777;28;20605;-74
2023/11/07 04:38:05;;;;;;;3.43;1.50;;;8.40;99.90;;;;;;5054638;28;20187;-75
2023/11/07 04:40:30;;;;;;;1.50;1.27;;;8.40;99.90;;;;;;5055138;28;20478;-75
2023/11/07 04:42:56;;;;;;;1.73;1.00;;;8.40;99.90;;;;;;5054770;28;20182;-75
2023/11/07 04:45:21;;;;;;;1.27;0.70;;;8.40;99.90;;;;;;5055151;28;20183;-74
2023/11/07 04:47:48;;;;;;;1.43;0.80;;;8.40;99.90;;;;;;5054420;28;20189;-75
2023/11/07 04:50:16;;;;;;;1.60;0.70;;;8.40;99.90;;;;;;5055222;28;20197;-75
2023/11/07 04:52:42;;;;;;;1.40;1.00;;;8.40;99.90;;;;;;5054395;28;20436;-74
2023/11/07 04:55:08;;;;;;;1.50;1.00;;;8.50;99.90;;;;;;5054413;28;20782;-74
2023/11/07 04:57:34;;;;;;;1.30;0.80;;;8.50;99.90;;;;;;5054233;28;20232;-75
2023/11/07 04:59:59;;;;;;;1.33;0.90;;;8.50;99.90;;;;;;5054363;28;20177;-75
2023/11/07 05:02:25;;;;;;;2.30;0.93;;;8.40;99.90;;;;;;5054229;28;20404;-75
2023/11/07 05:04:51;;;;;;;2.30;0.97;;;8.50;99.90;;;;;;5054211;28;20170;-75
2023/11/07 05:07:17;;;;;;;2.80;1.00;;;8.40;99.90;;;;;;5054039;28;20186;-75
2023/11/07 05:09:43;;;;;;;1.40;0.90;;;8.40;99.90;;;;;;5054354;28;20413;-75
2023/11/07 05:12:08;;;;;;;2.57;0.83;;;8.30;99.90;;;;;;5054135;28;20444;-75
2023/11/07 05:14:34;;;;;;;1.33;0.80;;;8.30;99.90;;;;;;5052707;28;20213;-73
2023/11/07 05:16:59;;;;;;;2.53;1.03;;;8.30;99.90;;;;;;5053881;28;20193;-75
2023/11/07 05:19:25;;;;;;;2.43;0.87;;;8.30;99.90;;;;;;5053978;28;20161;-74
2023/11/07 05:21:51;;;;;;;1.33;0.73;;;8.30;99.90;;;;;;5054494;28;20256;-74
2023/11/07 05:24:17;;;;;;;1.27;0.90;;;8.30;99.90;;;;;;5053867;28;20225;-74
2023/11/07 05:26:45;;;;;;;2.20;0.90;;;8.30;99.90;;;;;;5053830;28;20338;-74
2023/11/07 05:29:15;;;;;;;1.70;0.93;;;8.20;99.90;;;;;;5053669;28;20405;-74
2023/11/07 05:31:40;;;;;;;1.93;1.10;;;8.20;99.90;;;;;;5053831;28;20874;-74
2023/11/07 05:34:06;;;;;;;2.50;1.17;;;8.20;99.90;;;;;;5052479;28;20515;-74
2023/11/07 05:36:41;;;;;;;1.57;0.83;;;8.10;99.90;;;;;;5053618;28;20241;-75
2023/11/07 05:39:06;;;;;;;1.00;0.80;;;8.20;99.90;;;;;;5053838;28;20169;-74
2023/11/07 05:41:32;;;;;;;1.20;0.90;;;8.20;99.90;;;;;;5053567;28;20459;-74
2023/11/07 05:43:58;;;;;;;1.30;0.70;;;8.10;99.90;;;;;;5054308;28;20604;-74
2023/11/07 05:46:23;;;;;;;4.20;1.30;;;8.10;99.90;;;;;;5053716;28;20207;-75
2023/11/07 05:48:52;;;;;;;1.33;0.93;;;8.00;99.90;;;;;;5053487;28;20273;-74
2023/11/07 05:51:24;;;;;;;3.33;1.60;;;8.10;99.90;;;;;;5053245;28;20184;-74
2023/11/07 05:53:52;;;;;;;1.40;1.30;;;8.10;99.90;;;;;;5053129;28;20439;-74
2023/11/07 05:56:18;;;;;;;2.60;1.33;;;8.10;99.90;;;;;;5052681;28;20412;-74
2023/11/07 05:58:44;;;;;;;1.60;1.07;;;8.10;99.90;;;;;;5053127;28;20941;-74
2023/11/07 06:01:09;;;;;;;3.70;1.63;;;8.20;99.90;;;;;;5053958;28;20170;-74
2023/11/07 06:03:35;;;;;;;2.60;1.20;;;8.20;99.90;;;;;;5053376;28;20218;-74
2023/11/07 06:06:00;;;;;;;2.63;1.27;;;8.20;99.90;;;;;;5053026;28;20660;-74
2023/11/07 06:08:26;;;;;;;3.33;1.57;;;8.10;99.90;;;;;;5053068;28;20663;-74
2023/11/07 06:10:51;;;;;;;2.17;1.50;;;8.20;99.90;;;;;;5052958;28;20557;-74
2023/11/07 06:13:17;;;;;;;1.80;1.57;;;8.20;99.90;;;;;;5052818;28;20791;-74
2023/11/07 06:15:43;;;;;;;3.27;1.70;;;8.10;99.90;;;;;;5052992;28;20168;-74
2023/11/07 06:18:09;;;;;;;2.67;1.50;;;8.20;99.90;;;;;;5052179;28;20827;-76
2023/11/07 06:20:35;;;;;;;1.77;1.17;;;8.10;99.90;;;;;;5052367;28;20914;-74
2023/11/07 06:23:00;;;;;;;1.90;1.37;;;8.10;99.90;;;;;;5052665;28;20487;-73
2023/11/07 06:25:26;;;;;;;1.87;1.40;;;8.20;99.90;;;;;;5053156;28;20198;-74
2023/11/07 06:27:52;;;;;;;1.77;1.33;;;8.20;99.90;;;;;;5052508;28;20251;-74
2023/11/07 06:30:29;;;;;;;1.30;1.20;;;8.20;99.90;;;;;;5053226;28;20177;-73
2023/11/07 06:32:56;;;;;;;2.90;1.30;;;8.10;99.90;;;;;;5054051;28;20180;-74
2023/11/07 06:35:22;;;;;;;1.83;1.10;;;8.20;99.90;;;;;;5051612;28;20421;-74
2023/11/07 06:37:48;;;;;;;2.30;1.20;;;8.20;99.90;;;;;;5051309;28;21012;-74
2023/11/07 06:40:14;;;;;;;2.27;1.00;;;8.10;99.90;;;;;;5052590;28;20173;-74
2023/11/07 06:42:41;;;;;;;2.87;1.30;;;8.20;99.90;;;;;;5052789;28;20408;-74
2023/11/07 06:45:07;;;;;;;3.70;1.43;;;8.10;99.90;;;;;;5051197;28;20178;-75
2023/11/07 06:47:33;;;;;;;2.20;1.40;;;8.10;99.90;;;;;;5043359;28;20447;-78
2023/11/07 06:50:01;;;;;;;2.33;1.40;;;8.10;99.90;;;;;;5043578;28;20435;-75
2023/11/07 06:52:26;;;;;;;4.17;2.30;;;8.10;99.90;;;;;;5041758;28;20279;-74
2023/11/07 06:54:52;;;;;;;5.17;3.50;;;8.20;99.90;;;;;;5043636;28;20421;-73
2023/11/07 06:57:17;;;;;;;4.00;2.50;;;8.30;99.90;;;;;;5046324;28;20196;-73
2023/11/07 06:59:43;;;;;;;2.07;1.40;;;8.30;99.90;;;;;;5052535;28;20262;-74
2023/11/07 07:02:08;;;;;;;2.13;1.27;;;8.40;99.90;;;;;;5052549;28;20521;-73
2023/11/07 07:04:34;;;;;;;3.90;1.47;;;8.40;99.90;;;;;;5052487;28;20645;-74
2023/11/07 07:06:59;;;;;;;2.40;1.80;;;8.60;99.90;;;;;;5052472;28;20693;-74
2023/11/07 07:09:26;;;;;;;3.70;2.10;;;8.60;99.90;;;;;;5052492;28;20590;-74
2023/11/07 07:11:52;;;;;;;1.47;1.30;;;8.70;99.90;;;;;;5052270;28;20717;-74
2023/11/07 07:14:18;;;;;;;1.83;1.60;;;8.70;99.90;;;;;;5047491;28;20413;-75
2023/11/07 07:16:44;;;;;;;3.60;1.83;;;8.70;99.90;;;;;;5042766;28;20420;-74
2023/11/07 07:19:15;;;;;;;1.40;1.30;;;8.70;99.90;;;;;;5043252;28;20441;-76
2023/11/07 07:21:40;;;;;;;2.00;1.37;;;8.70;99.90;;;;;;5043304;28;20407;-76
2023/11/07 07:24:15;;;;;;;3.97;1.70;;;8.70;99.90;;;;;;5045403;28;20417;-73
2023/11/07 07:26:45;;;;;;;4.10;2.07;;;8.80;99.90;;;;;;5052422;28;20153;-74
2023/11/07 07:29:13;;;;;;;1.70;1.30;;;8.90;99.90;;;;;;5051851;28;20459;-74
2023/11/07 07:31:42;;;;;;;2.77;1.30;;;8.90;99.90;;;;;;5054281;28;20447;-74
2023/11/07 07:34:08;;;;;;;2.40;1.00;;;8.90;99.90;;;;;;5055654;28;20978;-74
2023/11/07 07:36:42;;;;;;;3.03;1.50;;;8.90;99.90;;;;;;5055497;28;20937;-74
2023/11/07 07:39:31;;;;;;;2.17;1.40;;;9.10;99.90;;;;;;5055632;28;20447;-74
2023/11/07 07:42:00;;;;;;;2.00;1.30;;;9.30;99.90;;;;;;5055958;28;20398;-74
2023/11/07 07:44:26;;;;;;;2.40;1.37;;;9.40;99.90;;;;;;5054119;28;20411;-74
2023/11/07 07:46:53;;;;;;;3.00;1.20;;;9.50;99.90;;;;;;5055382;28;20429;-74
2023/11/07 07:49:23;;;;;;;1.97;1.40;;;9.60;99.90;;;;;;5055204;28;20501;-74
2023/11/07 07:51:52;;;;;;;1.50;0.87;;;9.70;99.90;;;;;;5053380;28;20439;-75
2023/11/07 07:54:22;;;;;;;1.87;1.30;;;9.80;99.90;;;;;;5055259;28;20416;-74
2023/11/07 07:56:48;;;;;;;0.80;0.73;;;9.90;99.90;;;;;;5054990;28;20432;-74
2023/11/07 07:59:14;;;;;;;1.20;0.93;;;10.00;99.90;;;;;;5054804;28;20412;-75
2023/11/07 08:01:40;;;;;;;1.47;1.07;;;10.00;99.90;;;;;;5055483;28;20402;-74
2023/11/07 08:04:06;;;;;;;1.97;1.13;;;10.10;99.90;;;;;;5055404;28;20423;-75
2023/11/07 08:06:31;;;;;;;1.70;1.00;;;10.10;99.90;;;;;;5054789;28;20176;-74
2023/11/07 08:08:59;;;;;;;3.23;1.30;;;10.20;99.90;;;;;;5054969;28;20654;-74
2023/11/07 08:11:25;;;;;;;4.27;1.20;;;10.20;99.90;;;;;;5053518;28;20275;-73
2023/11/07 08:13:50;;;;;;;1.13;0.93;;;10.30;99.90;;;;;;5054114;28;20441;-73
2023/11/07 08:16:16;;;;;;;1.50;1.00;;;10.50;99.90;;;;;;5055064;28;20809;-75
2023/11/07 08:18:43;;;;;;;1.60;0.83;;;10.40;99.90;;;;;;5054055;28;20610;-76
2023/11/07 08:21:08;;;;;;;1.77;1.40;;;10.40;99.90;;;;;;5053961;28;20176;-75
2023/11/07 08:23:34;;;;;;;1.33;0.97;;;10.50;99.90;;;;;;5054781;28;20487;-74
2023/11/07 08:25:59;;;;;;;1.50;1.07;;;10.60;99.90;;;;;;5054444;28;20254;-75
2023/11/07 08:28:28;;;;;;;2.30;1.17;;;10.70;99.90;;;;;;5074782;22;20226;-71
2023/11/07 08:30:53;;;;;;;2.07;1.10;;;10.80;99.90;;;;;;5054781;28;20170;-72
2023/11/07 08:33:19;;;;;;;1.57;0.80;;;10.80;99.90;;;;;;5054589;28;20448;-72
2023/11/07 08:35:46;;;;;;;2.33;1.47;;;10.90;99.90;;;;;;5054582;28;20169;-72
2023/11/07 08:38:12;;;;;;;3.73;1.20;;;10.90;99.90;;;;;;5046888;28;20185;-71
2023/11/07 08:40:38;;;;;;;1.10;0.90;;;11.10;99.90;;;;;;5034514;28;20405;-71
2023/11/07 08:43:04;;;;;;;1.20;0.90;;;11.20;99.90;;;;;;5034253;28;20199;-71
2023/11/07 08:45:32;;;;;;;1.83;1.10;;;11.30;99.90;;;;;;5034457;28;20398;-70
2023/11/07 08:47:58;;;;;;;1.10;0.90;;;11.20;99.90;;;;;;5038587;28;20680;-71
2023/11/07 08:50:25;;;;;;;1.90;1.23;;;11.30;99.90;;;;;;5054314;28;20408;-71
2023/11/07 08:52:51;;;;;;;1.23;1.03;;;11.40;99.90;;;;;;5054369;28;20207;-71
2023/11/07 08:55:18;;;;;;;2.70;1.30;;;11.60;99.90;;;;;;5054405;28;20410;-71
2023/11/07 08:57:44;;;;;;;1.30;1.03;;;11.50;99.90;;;;;;5050925;28;20213;-72
2023/11/07 09:00:12;;;;;;;3.63;1.00;;;11.40;99.90;;;;;;5034004;28;20413;-72
2023/11/07 09:02:38;;;;;;;1.00;0.90;;;11.50;99.90;;;;;;5034208;28;20433;-71
2023/11/07 09:05:05;;;;;;;2.17;1.13;;;11.60;99.90;;;;;;5034244;28;20406;-72
2023/11/07 09:07:31;;;;;;;4.00;1.00;;;11.60;99.90;;;;;;5035783;28;20454;-71
2023/11/07 09:09:57;;;;;;;3.53;0.97;;;11.70;99.90;;;;;;5054319;28;20445;-72
2023/11/07 09:12:24;;;;;;;1.60;1.27;;;11.90;99.90;;;;;;5054173;28;20498;-71
2023/11/07 09:14:50;;;;;;;5.03;1.10;;;12.00;99.90;;;;;;5054043;28;20203;-71
2023/11/07 09:17:15;;;;;;;2.43;1.10;;;11.90;99.90;;;;;;5053756;28;20424;-71
2023/11/07 09:19:41;;;;;;;1.13;0.97;;;11.70;99.90;;;;;;5034423;28;20280;-71
2023/11/07 09:22:07;;;;;;;2.63;1.30;;;11.80;99.90;;;;;;5033853;28;20224;-72
2023/11/07 09:24:33;;;;;;;1.10;1.00;;;11.90;99.90;;;;;;5033990;28;20176;-72
2023/11/07 09:26:59;;;;;;;2.50;1.20;;;11.90;99.90;;;;;;5033497;28;20413;-71
2023/11/07 09:29:25;;;;;;;1.10;0.80;;;12.20;99.90;;;;;;5050540;28;20784;-71
2023/11/07 09:31:52;;;;;;;3.23;1.00;;;12.30;99.90;;;;;;5053711;28;20437;-72
2023/11/07 09:34:20;;;;;;;2.60;0.87;;;12.30;99.90;;;;;;5053540;28;20188;-71
2023/11/07 09:36:46;;;;;;;2.37;1.10;;;12.30;99.90;;;;;;5053482;28;20395;-72
2023/11/07 09:39:12;;;;;;;2.67;0.60;;;12.50;99.90;;;;;;5038235;28;20498;-71
2023/11/07 09:41:41;;;;;;;1.67;1.30;;;12.70;99.90;;;;;;5033784;28;20894;-72
2023/11/07 09:44:11;;;;;;;2.17;0.80;;;12.70;99.90;;;;;;5033214;28;20177;-71
2023/11/07 09:46:37;;;;;;;1.03;0.93;;;13.00;99.90;;;;;;5033447;28;20874;-71
2023/11/07 09:49:03;;;;;;;0.90;0.70;;;13.20;99.90;;;;;;5047076;28;20840;-72
2023/11/07 09:51:32;;;;;;;2.50;1.50;;;13.00;99.90;;;;;;5053461;28;20440;-72
2023/11/07 09:53:59;;;;;;;1.27;0.70;;;13.30;99.90;;;;;;5035680;28;20214;-72
2023/11/07 09:56:29;;;;;;;2.10;0.90;;;13.10;99.90;;;;;;5033518;28;20409;-72
2023/11/07 09:59:03;;;;;;;1.70;1.17;;;13.20;99.90;;;;;;5045481;28;20470;-70
2023/11/07 10:01:28;;;;;;;1.20;0.90;;;13.40;99.90;;;;;;5053311;28;20764;-71
2023/11/07 10:03:55;;;;;;;0.90;0.70;;;13.50;99.90;;;;;;5053331;28;20443;-72
2023/11/07 10:06:21;;;;;;;1.27;0.90;;;13.60;99.90;;;;;;5052964;28;20719;-71
2023/11/07 10:08:47;;;;;;;1.57;0.70;;;13.40;99.90;;;;;;5041808;28;20422;-72
2023/11/07 10:11:14;;;;;;;2.17;0.67;;;13.30;99.90;;;;;;5033135;28;20556;-71
2023/11/07 10:14:08;;;;;;;1.00;0.70;;;13.40;99.90;;;;;;5035782;28;20951;-72
2023/11/07 10:16:41;;;;;;;1.60;0.90;;;13.40;99.90;;;;;;5033347;28;20415;-72
2023/11/07 10:19:13;;;;;;;1.97;0.80;;;13.40;99.90;;;;;;5046572;28;20466;-72
2023/11/07 10:21:39;;;;;;;1.63;0.80;;;13.10;99.90;;;;;;5052842;28;20474;-73
2023/11/07 10:24:05;;;;;;;1.87;0.80;;;13.20;99.90;;;;;;5052924;28;20495;-72
2023/11/07 10:26:31;;;;;;;3.00;1.10;;;13.40;99.90;;;;;;5052673;28;20184;-72
2023/11/07 10:29:13;;;;;;;1.20;0.80;;;13.40;99.90;;;;;;5050878;28;20448;-72
2023/11/07 10:31:41;;;;;;;1.27;0.70;;;13.60;99.90;;;;;;5052914;28;20188;-72
2023/11/07 10:34:15;;;;;;;1.73;0.80;;;13.20;99.90;;;;;;5052877;28;20981;-72
2023/11/07 10:36:43;;;;;;;1.13;0.80;;;13.00;99.90;;;;;;5052566;28;20927;-73
2023/11/07 10:39:21;;;;;;;1.20;0.70;;;13.10;99.90;;;;;;5038975;28;20416;-70
2023/11/07 10:41:50;;;;;;;1.10;0.60;;;12.90;99.90;;;;;;5033384;28;20389;-73
2023/11/07 10:44:27;;;;;;;1.33;0.60;;;13.00;99.90;;;;;;5033313;28;20462;-72
2023/11/07 10:46:53;;;;;;;1.13;0.60;;;13.10;99.90;;;;;;5032421;28;20503;-72
2023/11/07 10:49:20;;;;;;;1.50;0.60;;;13.20;99.90;;;;;;5044175;28;20413;-72
2023/11/07 10:51:46;;;;;;;2.60;0.70;;;13.50;99.90;;;;;;5032469;28;20452;-72
2023/11/07 10:54:13;;;;;;;0.90;0.60;;;13.70;99.90;;;;;;5032480;28;20432;-71
2023/11/07 10:56:42;;;;;;;1.90;0.90;;;14.10;99.90;;;;;;5030882;28;20468;-73
2023/11/07 10:59:11;;;;;;;5.87;1.80;;;14.00;99.90;;;;;;5032976;28;20445;-73
2023/11/07 11:01:40;;;;;;;1.40;0.63;;;13.80;99.90;;;;;;5032280;28;20438;-72
2023/11/07 11:04:11;;;;;;;1.17;0.70;;;13.50;99.90;;;;;;5032446;28;20416;-73
2023/11/07 11:06:41;;;;;;;2.03;0.83;;;13.40;99.90;;;;;;5036517;28;20889;-71
2023/11/07 11:09:10;;;;;;;1.60;0.67;;;13.10;99.90;;;;;;5044486;28;20457;-72
2023/11/07 11:11:37;;;;;;;2.13;0.90;;;12.80;99.90;;;;;;5036070;28;20453;-72
2023/11/07 11:14:08;;;;;;;1.60;0.70;;;12.70;99.90;;;;;;5035833;28;20404;-70
2023/11/07 11:16:39;;;;;;;1.20;0.67;;;12.70;99.90;;;;;;5035863;28;20405;-71
2023/11/07 11:19:10;;;;;;;1.63;0.80;;;12.60;99.90;;;;;;5035701;28;20429;-72
2023/11/07 11:21:51;;;;;;;1.00;0.67;;;12.50;99.90;;;;;;5035716;28;20739;-71
2023/11/07 11:24:56;;;;;;;2.63;1.30;;;12.30;99.90;;;;;;5035676;28;20535;-71
2023/11/07 11:27:30;;;;;;;2.17;0.97;;;12.40;99.90;;;;;;5012167;28;20470;-71
2023/11/07 11:29:55;;;;;;;1.20;0.80;;;12.20;99.90;;;;;;5045963;28;20517;-72
2023/11/07 11:32:29;;;;;;;1.10;0.93;;;12.10;99.90;;;;;;5056021;28;20551;-71
2023/11/07 11:35:15;;;;;;;2.43;1.00;;;12.10;99.90;;;;;;5056235;28;20684;-73
2023/11/07 11:38:09;;;;;;;1.13;0.90;;;12.20;99.90;;;;;;5055618;28;20427;-72
2023/11/07 11:40:55;;;;;;;1.80;0.90;;;12.50;99.90;;;;;;5040301;28;20893;-72
2023/11/07 11:43:23;;;;;;;1.10;0.80;;;12.60;99.90;;;;;;5036298;28;20426;-72
2023/11/07 11:45:50;;;;;;;1.23;0.70;;;12.70;99.90;;;;;;5035670;28;20402;-72
2023/11/07 11:48:18;;;;;;;1.10;0.80;;;12.60;99.90;;;;;;5035588;28;20420;-71
2023/11/07 11:50:46;;;;;;;1.10;0.70;;;12.80;99.90;;;;;;5051924;28;20442;-71
2023/11/07 11:53:33;;;;;;;1.10;0.90;;;12.70;99.90;;;;;;5055386;28;20864;-72
2023/11/07 11:55:59;;;;;;;1.10;0.93;;;14.00;99.90;;;;;;5055428;28;20452;-72
2023/11/07 11:58:30;;;;;;;1.63;0.93;;;15.30;99.90;;;;;;5053671;28;20432;-73
2023/11/07 12:00:57;;;;;;;1.70;0.83;;;16.10;99.90;;;;;;5037498;28;20163;-72
2023/11/07 12:03:24;;;;;;;1.60;0.80;;;16.00;99.90;;;;;;5034567;28;20407;-72
2023/11/07 12:06:04;;;;;;;1.07;0.70;;;15.40;99.90;;;;;;5035462;28;20401;-71
2023/11/07 12:08:41;;;;;;;1.30;0.83;;;14.90;99.90;;;;;;5035205;28;20504;-71
2023/11/07 12:11:07;;;;;;;2.63;0.93;;;14.90;99.90;;;;;;5054383;28;20399;-70
2023/11/07 12:13:33;;;;;;;1.77;1.00;;;14.80;99.90;;;;;;5055265;28;20761;-72
2023/11/07 12:16:19;;;;;;;2.10;1.03;;;15.00;99.90;;;;;;5050168;28;20411;-73
2023/11/07 12:18:47;;;;;;;1.17;0.80;;;14.10;99.90;;;;;;5033066;28;20449;-71
2023/11/07 12:21:28;;;;;;;1.00;0.60;;;13.70;99.90;;;;;;5034006;28;20413;-72
2023/11/07 12:23:57;;;;;;;1.43;0.80;;;13.70;99.90;;;;;;5034766;28;20508;-72
2023/11/07 12:26:37;;;;;;;0.90;0.60;;;14.00;99.90;;;;;;5034503;28;20506;-72
2023/11/07 12:29:03;;;;;;;1.40;0.67;;;14.20;99.90;;;;;;5036636;28;20504;-72
2023/11/07 12:31:36;;;;;;;1.30;0.77;;;14.30;99.90;;;;;;5040108;28;20469;-72
2023/11/07 12:34:02;;;;;;;1.43;0.60;;;14.00;99.90;;;;;;5034691;28;20211;-73
2023/11/07 12:36:29;;;;;;;2.70;0.70;;;14.40;99.90;;;;;;5031762;28;20468;-74
2023/11/07 12:38:55;;;;;;;3.07;0.70;;;14.30;99.90;;;;;;5035042;28;20184;-72
2023/11/07 12:41:21;;;;;;;2.07;1.10;;;14.10;99.90;;;;;;5035132;28;20436;-72
2023/11/07 12:43:48;;;;;;;1.63;0.63;;;14.10;99.90;;;;;;5034151;28;20262;-72
2023/11/07 12:46:16;;;;;;;4.03;1.20;;;14.10;99.90;;;;;;5032597;28;20408;-71
2023/11/07 12:48:42;;;;;;;0.90;0.80;;;14.00;99.90;;;;;;5034328;28;20439;-70
2023/11/07 12:51:08;;;;;;;1.57;1.03;;;14.30;99.90;;;;;;5034859;28;20415;-73
2023/11/07 12:53:47;;;;;;;3.90;0.83;;;14.40;99.90;;;;;;5034301;28;20432;-72